x

West Santa Barbara 38 Nm West Of Santa Barbara, Ca (46054) Wave Buoy

5:50 - Sat 1st Oct 2016 All times are PDT. -7 hours from GMT.

  • Sig Wave height 7.2ft
  • Swell Direction
  • Peak Period 8s
  • Average Period 6s
  • Wind
    22mph, 29mph gusts
  • Sea Temp 59°f
  • Ar Temp 59°f
  • Sea Pressure 1015.3mb
  • West Santa Barbara  38 Nm West Of Santa Barbara, Ca
  • West Santa Barbara  38 Nm West Of Santa Barbara, Ca

More Historic Weather Station data

Upgrade to MSW Pro to gain access to the past 30 days of data for over 8000 Wavebouys and Weather Stations around the globe.

Join Pro

Comparision Forecast

View Surf forecast
   
Sáb 10/01 5:50 7ft 8s 6s 22 29 mph 1015.3mb 59f 59f
4:50 8ft 8s 6s 27 34 mph 1015.2mb 60f 58f
3:50 8ft 8s 6s 27 31 mph 1015.3mb 60f 59f
2:50 7ft 8s 6s 25 31 mph 1015.7mb 60f 60f
1:50 8ft 8s 6s 25 31 mph 1016mb 60f 60f
12:50 7.5ft 8s 6s 27 34 mph 1015.9mb 60f 60f
Sex 09/30 11:50 7ft 8s 6s 29 34 mph 1015.8mb 60f 60f
10:50 7ft 8s 6s 29 36 mph 1015.7mb 60f 60f
9:50 7ft 8s 6s 27 34 mph 1015.6mb 60f 60f
8:50 6.5ft 8s 6s 29 34 mph 1015.1mb 60f 60f
7:50 7ft 8s 6s 27 34 mph 1015mb 61f 60f
6:50 7ft 6s 5s 29 36 mph 1014.8mb 62f 60f
5:50 6.5ft 7s 5s 29 36 mph 1014.9mb 63f 61f
4:50 6ft 7s 5s 27 34 mph 1015.1mb 64f 61f
3:50 6.5ft 6s 5s 29 34 mph 1015.3mb 64f 60f
2:50 6.5ft 7s 5s 31 36 mph 1015.5mb 64f 59f
1:50 6ft 6s 5s 29 34 mph 1016.4mb 64f 59f
12:50 6ft 6s 5s 27 29 mph 1017.2mb 64f 59f
11:50 6ft 15s 6s 25 31 mph 1017.5mb 64f 59f
10:50 5.5ft 7s 6s 25 29 mph 1017.7mb 64f 59f
9:50 5ft 16s 5s 25 29 mph 1017.6mb 64f 59f
8:50 5ft 8s 5s 22 27 mph 1017.4mb 64f 58f
7:50 5ft 16s 5s 22 27 mph 1017.3mb 64f 58f
6:50 5.5ft 15s 5s 22 27 mph 1016.9mb 64f 59f
5:50 5.5ft 16s 5s 22 27 mph 1016.5mb 63f 59f
4:50 5.5ft 9s 5s 22 27 mph 1016.3mb 63f 58f
3:50 5.5ft 9s 5s 22 27 mph 1016.2mb 63f 58f
2:50 5ft 9s 5s 22 27 mph 1016.5mb 63f 59f
1:50 5ft 9s 5s 20 27 mph 1016.3mb 63f 60f
12:50 5.5ft 9s 6s 20 25 mph 1016.3mb 62f 60f
Qui 09/29 11:50 6ft 9s 6s 20 25 mph 1016.7mb 63f 60f
10:50 5ft 10s 6s 20 25 mph 1016.6mb 62f 60f
9:50 5ft 8s 6s 18 20 mph 1016.5mb 63f 60f
8:50 5ft 9s 6s 20 25 mph 1016.5mb 65f 60f
7:50 5ft 9s 6s 20 22 mph 1016.2mb 65f 60f
6:50 5ft 9s 6s 20 25 mph 1016.1mb 66f 61f
5:50 5ft 9s 6s 20 22 mph 1016.2mb 66f 62f
4:50 5ft 9s 6s 18 20 mph 1016.2mb 66f 62f
3:50 5ft 10s 6s 16 18 mph 1016.7mb 66f 62f
2:50 5ft 9s 7s 16 18 mph 1017.1mb 66f 61f
1:50 5ft 10s 7s 13 16 mph 1017.5mb 66f 61f
12:50 4.5ft 9s 7s 13 16 mph 1017.9mb 66f 61f
11:50 4.5ft 10s 7s 13 16 mph 1018.1mb 65f 60f
10:50 4.5ft 9s 6s 13 16 mph 1018mb 65f 59f
9:50 4.5ft 10s 6s 13 16 mph 1017.8mb 64f 59f
8:50 4.5ft 10s 6s 13 16 mph 1016.9mb 64f 60f
7:50 4.5ft 10s 6s 16 18 mph 1016.2mb 64f 59f
6:50 5ft 9s 7s 13 16 mph 1015.8mb 64f 58f
5:50 5ft 9s 7s 13 16 mph 1015.3mb 64f 59f
4:50 5ft 9s 7s 13 16 mph 1014.6mb 65f 59f
3:50 5ft 9s 7s 13 18 mph 1014.3mb 65f 60f
2:50 4.5ft 9s 6s 16 18 mph 1014.2mb 64f 60f
1:50 4.5ft 9s 6s 13 18 mph 1014.5mb 63f 60f
12:50 4.5ft 9s 6s 13 16 mph 1014.6mb 63f 60f
Qua 09/28 11:50 4.5ft 8s 6s 16 18 mph 1014.5mb 63f 60f
10:50 4.5ft 9s 7s 13 16 mph 1014.5mb 62f 62f
9:50 4.5ft 9s 6s 9 11 mph 1014.6mb 63f 62f
8:50 4.5ft 10s 7s 11 13 mph 1014.2mb 63f 62f
7:50 4.5ft 9s 7s 11 13 mph 1013.5mb 63f 62f
6:50 4ft 10s 6s 11 13 mph 1012.9mb 64f 63f
5:50 4.5ft 9s 7s 11 13 mph 1012.7mb 65f 63f
4:50 4.5ft 10s 7s 11 13 mph 1012.7mb 65f 63f
3:50 3.5ft 9s 7s 11
mph
1012.9mb 65f 62f
2:50 4.5ft 9s 7s 9 11 mph 1013.2mb 64f 61f
1:50 4.5ft 10s 7s 9 11 mph 1013.3mb 64f 62f
12:50 4ft 9s 7s 7
mph
1013.5mb 64f 62f
11:50 4.5ft 9s 7s 7
mph
1013.6mb 64f 62f
10:50 4.5ft 9s 7s 4
mph
1013.8mb 63f 61f
9:50 5ft 8s 7s 7 9 mph 1013.6mb 62f 60f
8:50 5ft 9s 7s 9
mph
1013.4mb 62f 59f
7:50 5ft 9s 7s 9 11 mph 1012.8mb 62f 59f
6:50 4.5ft 9s 7s 9 11 mph 1012.2mb 62f 60f
5:50 4.5ft 9s 6s 9 11 mph 1012mb 62f 61f
4:50 4.5ft 10s 7s 11 13 mph 1011.4mb 62f 63f
3:50 4.5ft 10s 7s 11 13 mph 1011.4mb 62f 64f
2:50 4.5ft 10s 7s 11 13 mph 1011.7mb 63f 64f
1:50 4ft 11s 7s 9 11 mph 1011.6mb 62f 64f
12:50 4.5ft 10s 7s 4 7 mph 1011.7mb 62f 64f
Ter 09/27 11:50 4ft 10s 6s 4
mph
1011.8mb 62f 65f
10:50 4ft 11s 6s 2 4 mph 1011.7mb 62f 64f
9:50 4.5ft 11s 7s 4 7 mph 1011.4mb 63f 64f
8:50 3.5ft 11s 7s 4 7 mph 1011.1mb 64f 65f
7:50 4ft 11s 8s 7
mph
1010.3mb 65f 66f
6:50 3.5ft 9s 8s 4 7 mph 1010.2mb 66f 68f
5:50 3.5ft 9s 8s 2 4 mph 1010.3mb 66f 70f
4:50 3.5ft 10s 8s 7 9 mph 1010.2mb 67f 70f
3:50 3.5ft 11s 8s 4 7 mph 1010.1mb 67f 70f
2:50 3.5ft 10s 8s 7 9 mph 1010mb 67f 71f
1:50 3.5ft 9s 8s  -  2 mph 1010.1mb 65f 69f